createdAt,value
2019-04-14T00:00:25.131Z,3.19
2019-04-14T00:03:04.503Z,3.23
2019-04-14T00:05:36.988Z,3.33
2019-04-14T00:08:09.036Z,3.44
2019-04-14T00:10:42.122Z,3.54
2019-04-14T00:13:15.245Z,3.53
2019-04-14T00:15:50.432Z,3.47
2019-04-14T00:18:21.265Z,3.50
2019-04-14T00:20:53.490Z,3.54
2019-04-14T00:23:26.132Z,3.50
2019-04-14T00:26:22.832Z,3.52
2019-04-14T00:28:55.589Z,3.58
2019-04-14T00:31:28.578Z,3.59
2019-04-14T00:34:07.264Z,3.52
2019-04-14T00:36:50.227Z,3.48
2019-04-14T00:39:29.436Z,3.57
2019-04-14T00:42:08.624Z,3.59
2019-04-14T00:44:49.704Z,3.61
2019-04-14T00:47:28.903Z,3.57
2019-04-14T00:50:01.645Z,3.72
2019-04-14T00:52:34.105Z,3.67
2019-04-14T00:55:06.163Z,3.64
2019-04-14T00:57:39.754Z,3.70
2019-04-14T01:00:12.783Z,3.74
2019-04-14T01:02:47.124Z,3.75
2019-04-14T01:05:19.552Z,3.83
2019-04-14T01:07:52.335Z,3.80
2019-04-14T01:10:25.610Z,3.84
2019-04-14T01:12:58.157Z,3.83
2019-04-14T01:15:31.069Z,3.80
2019-04-14T01:18:04.024Z,3.75
2019-04-14T01:20:36.375Z,3.82
2019-04-14T01:23:08.523Z,3.82
2019-04-14T01:25:41.046Z,3.86
2019-04-14T01:28:13.717Z,3.94
2019-04-14T01:30:45.929Z,3.95
2019-04-14T01:33:18.295Z,3.91
2019-04-14T01:35:51.015Z,3.90
2019-04-14T01:38:23.344Z,3.88
2019-04-14T01:40:55.396Z,3.92
2019-04-14T01:43:27.792Z,3.96
2019-04-14T01:46:09.589Z,3.96
2019-04-14T01:48:34.605Z,3.98
2019-04-14T01:51:44.459Z,3.90
2019-04-14T01:54:40.988Z,3.78
2019-04-14T01:57:44.239Z,3.80
2019-04-14T02:00:38.580Z,3.73
2019-04-14T02:03:10.724Z,3.79
2019-04-14T02:05:43.181Z,3.78
2019-04-14T02:08:15.526Z,3.80
2019-04-14T02:10:47.907Z,3.79
2019-04-14T02:13:20.345Z,3.61
2019-04-14T02:15:52.880Z,3.74
2019-04-14T02:18:25.184Z,3.82
2019-04-14T02:20:57.884Z,3.87
2019-04-14T02:23:30.202Z,4.00
2019-04-14T02:26:02.361Z,3.97
2019-04-14T02:28:35.358Z,3.92
2019-04-14T02:31:17.701Z,3.98
2019-04-14T02:34:09.541Z,3.92
2019-04-14T02:41:57.028Z,4.03
2019-04-14T02:46:53.414Z,4.11
2019-04-14T02:52:04.758Z,4.14
2019-04-14T02:54:44.980Z,4.19
2019-04-14T02:57:16.933Z,4.20
2019-04-14T03:07:28.637Z,4.12
2019-04-14T03:09:56.249Z,4.20
2019-04-14T03:15:07.050Z,4.22
2019-04-14T03:18:26.370Z,4.19
2019-04-14T03:21:03.957Z,4.09
2019-04-14T03:23:57.887Z,4.03
2019-04-14T03:26:41.928Z,3.95
2019-04-14T03:29:20.999Z,4.03
2019-04-14T03:37:31.027Z,4.01
2019-04-14T03:42:17.151Z,4.01
2019-04-14T03:44:41.413Z,4.00
2019-04-14T03:49:45.101Z,3.92
2019-04-14T03:52:27.114Z,3.94
2019-04-14T03:54:50.129Z,3.93
2019-04-14T03:57:06.104Z,3.97
2019-04-14T03:59:39.222Z,4.01
2019-04-14T04:02:11.824Z,4.02
2019-04-14T04:04:44.515Z,4.09
2019-04-14T04:07:17.058Z,4.08
2019-04-14T04:09:54.238Z,4.08
2019-04-14T04:12:27.174Z,4.14
2019-04-14T04:14:59.728Z,4.13
2019-04-14T04:17:45.163Z,4.13
2019-04-14T04:20:43.452Z,4.19
2019-04-14T04:23:35.640Z,4.23
2019-04-14T04:26:30.508Z,4.20
2019-04-14T04:29:28.799Z,4.22
2019-04-14T04:32:20.836Z,4.21
2019-04-14T04:35:11.101Z,4.12
2019-04-14T04:37:52.687Z,4.21
2019-04-14T04:40:27.205Z,4.18
2019-04-14T04:42:59.213Z,4.11
2019-04-14T04:45:32.013Z,4.10
2019-04-14T04:48:04.580Z,4.14
2019-04-14T04:50:36.913Z,4.12
2019-04-14T04:53:09.150Z,4.12
2019-04-14T04:55:41.662Z,4.09
2019-04-14T04:58:13.754Z,4.14
2019-04-14T05:00:47.374Z,4.19
2019-04-14T05:03:19.638Z,4.22
2019-04-14T05:07:07.849Z,4.23
2019-04-14T05:10:00.197Z,4.20
2019-04-14T05:12:52.242Z,4.16
2019-04-14T05:15:44.614Z,4.01
2019-04-14T05:18:22.202Z,4.03
2019-04-14T05:20:55.358Z,4.04
2019-04-14T05:23:27.859Z,4.12
2019-04-14T05:26:00.560Z,4.21
2019-04-14T05:28:33.179Z,4.28
2019-04-14T05:31:05.518Z,4.28
2019-04-14T05:33:38.285Z,4.31
2019-04-14T05:36:10.754Z,4.26
2019-04-14T05:38:42.894Z,4.26
2019-04-14T05:41:15.843Z,4.38
2019-04-14T05:43:53.918Z,4.37
2019-04-14T05:46:23.086Z,4.46
2019-04-14T05:48:55.766Z,4.54
2019-04-14T05:51:28.394Z,4.66
2019-04-14T05:54:01.130Z,4.78
2019-04-14T05:56:35.084Z,4.89
2019-04-14T05:59:07.041Z,4.96
2019-04-14T06:01:39.296Z,5.11
2019-04-14T06:04:11.462Z,5.24
2019-04-14T06:06:43.395Z,5.30
2019-04-14T06:09:15.377Z,5.47
2019-04-14T06:11:47.366Z,5.47
2019-04-14T06:14:19.305Z,5.60
2019-04-14T06:16:51.278Z,5.76
2019-04-14T06:19:23.254Z,5.83
2019-04-14T06:21:55.237Z,5.97
2019-04-14T06:24:27.208Z,5.98
2019-04-14T06:26:59.247Z,5.91
2019-04-14T06:29:31.227Z,5.87
2019-04-14T06:32:21.682Z,5.92
2019-04-14T06:35:20.608Z,6.01
2019-04-14T06:38:13.929Z,6.12
2019-04-14T06:40:54.317Z,6.17
2019-04-14T06:43:26.331Z,6.10
2019-04-14T06:45:58.300Z,6.17
2019-04-14T06:48:30.296Z,6.13
2019-04-14T06:51:02.320Z,6.17
2019-04-14T06:53:34.315Z,6.11
2019-04-14T06:56:06.307Z,5.98
2019-04-14T06:58:38.277Z,5.84
2019-04-14T07:01:10.275Z,6.04
2019-04-14T07:03:42.278Z,6.17
2019-04-14T07:06:14.254Z,6.08
2019-04-14T07:08:46.268Z,6.35
2019-04-14T07:11:18.229Z,6.42
2019-04-14T07:13:50.194Z,6.67
2019-04-14T07:16:22.157Z,6.89
2019-04-14T07:18:54.151Z,7.38
2019-04-14T07:21:26.133Z,7.44
2019-04-14T07:23:58.160Z,7.83
2019-04-14T07:26:30.174Z,8.36
2019-04-14T07:29:02.205Z,8.56
2019-04-14T07:31:57.742Z,8.52
2019-04-14T07:34:40.186Z,8.40
2019-04-14T07:37:47.155Z,8.02
2019-04-14T07:40:38.771Z,7.81
2019-04-14T07:43:45.668Z,7.81
2019-04-14T07:46:31.116Z,7.68
2019-04-14T07:49:16.298Z,7.58
2019-04-14T07:52:07.884Z,7.57
2019-04-14T07:55:03.528Z,7.61
2019-04-14T07:57:53.851Z,7.88
2019-04-14T08:00:35.225Z,7.29
2019-04-14T08:03:14.955Z,6.97
2019-04-14T08:05:46.954Z,7.12
2019-04-14T08:08:18.968Z,7.35
2019-04-14T08:10:50.940Z,7.35
2019-04-14T08:13:22.991Z,7.58
2019-04-14T08:15:54.956Z,7.87
2019-04-14T08:18:26.965Z,7.66
2019-04-14T08:20:58.955Z,7.30
2019-04-14T08:23:30.909Z,7.46
2019-04-14T08:26:02.939Z,7.77
2019-04-14T08:28:34.951Z,8.04
2019-04-14T08:31:06.938Z,8.38
2019-04-14T08:33:38.923Z,8.24
2019-04-14T08:36:10.910Z,8.45
2019-04-14T08:38:42.928Z,8.39
2019-04-14T08:41:14.967Z,8.37
2019-04-14T08:43:59.330Z,8.47
2019-04-14T08:46:41.762Z,8.37
2019-04-14T08:49:36.339Z,8.68
2019-04-14T08:52:46.120Z,8.76
2019-04-14T08:55:22.256Z,8.74
2019-04-14T08:58:16.641Z,8.73
2019-04-14T09:01:09.006Z,9.39
2019-04-14T09:04:18.984Z,10.02
2019-04-14T09:07:08.734Z,10.54
2019-04-14T09:09:46.804Z,10.85
2019-04-14T09:12:22.811Z,11.23
2019-04-14T09:14:57.274Z,11.13
2019-04-14T09:17:30.190Z,11.26
2019-04-14T09:20:02.187Z,10.54
2019-04-14T09:22:34.254Z,10.89
2019-04-14T09:25:06.245Z,10.77
2019-04-14T09:27:38.245Z,11.02
2019-04-14T09:30:10.262Z,11.29
2019-04-14T09:32:42.264Z,11.41
2019-04-14T09:35:14.255Z,11.53
2019-04-14T09:37:46.282Z,10.86
2019-04-14T09:40:18.279Z,11.23
2019-04-14T09:42:50.268Z,11.52
2019-04-14T09:45:22.301Z,11.79
2019-04-14T09:47:54.366Z,11.65
2019-04-14T09:50:26.320Z,11.71
2019-04-14T09:52:58.355Z,11.72
2019-04-14T09:55:30.437Z,11.71
2019-04-14T09:58:02.499Z,11.79
2019-04-14T10:00:35.705Z,11.96
2019-04-14T10:03:08.231Z,11.95
2019-04-14T10:05:40.276Z,11.94
2019-04-14T10:08:12.313Z,11.93
2019-04-14T10:10:44.363Z,11.81
2019-04-14T10:13:16.453Z,11.63
2019-04-14T10:15:48.446Z,11.82
2019-04-14T10:18:20.493Z,11.97
2019-04-14T10:20:52.475Z,12.10
2019-04-14T10:23:24.478Z,12.35
2019-04-14T10:25:56.488Z,12.25
2019-04-14T10:28:28.492Z,12.38
2019-04-14T10:31:00.491Z,12.52
2019-04-14T10:33:32.490Z,12.50
2019-04-14T10:36:04.450Z,12.49
2019-04-14T10:38:36.446Z,12.55
2019-04-14T10:41:08.501Z,12.22
2019-04-14T10:43:40.631Z,12.34
2019-04-14T10:46:12.644Z,12.21
2019-04-14T10:48:44.713Z,12.04
2019-04-14T10:51:29.212Z,12.03
2019-04-14T10:53:50.648Z,12.10
2019-04-14T10:56:22.696Z,11.97
2019-04-14T10:58:54.771Z,12.33
2019-04-14T11:01:26.754Z,12.34
2019-04-14T11:03:58.791Z,12.66
2019-04-14T11:06:53.162Z,12.82
2019-04-14T11:09:25.199Z,12.96
2019-04-14T11:11:57.196Z,12.94
2019-04-14T11:14:29.193Z,12.68
2019-04-14T11:17:01.177Z,12.75
2019-04-14T11:19:33.186Z,12.65
2019-04-14T11:22:07.078Z,12.64
2019-04-14T11:24:39.153Z,12.62
2019-04-14T11:27:14.354Z,12.60
2019-04-14T11:29:46.375Z,12.44
2019-04-14T11:32:47.269Z,12.51
2019-04-14T11:35:47.644Z,12.90
2019-04-14T11:38:23.809Z,12.93
2019-04-14T11:40:57.968Z,13.06
2019-04-14T11:43:29.953Z,13.17
2019-04-14T11:46:03.912Z,13.02
2019-04-14T11:48:35.853Z,12.82
2019-04-14T11:51:07.881Z,12.63
2019-04-14T11:53:41.181Z,12.77
2019-04-14T11:56:13.218Z,12.80
2019-04-14T11:58:45.242Z,12.62
2019-04-14T12:01:48.974Z,12.84
2019-04-14T12:04:52.607Z,13.08
2019-04-14T12:07:46.982Z,13.14
2019-04-14T12:10:23.432Z,13.02
2019-04-14T12:12:55.424Z,12.91
2019-04-14T12:15:27.469Z,12.78
2019-04-14T12:17:59.620Z,12.85
2019-04-14T12:20:31.611Z,12.98
2019-04-14T12:23:03.652Z,12.71
2019-04-14T12:25:35.639Z,12.89
2019-04-14T12:28:07.668Z,12.82
2019-04-14T12:30:39.975Z,12.54
2019-04-14T12:33:11.983Z,12.28
2019-04-14T12:35:43.957Z,12.30
2019-04-14T12:38:17.745Z,12.53
2019-04-14T12:40:50.235Z,12.58
2019-04-14T12:43:28.878Z,12.77
2019-04-14T12:46:13.199Z,12.51
2019-04-14T12:48:52.978Z,12.53
2019-04-14T12:51:28.809Z,12.42
2019-04-14T12:54:00.844Z,12.37
2019-04-14T12:56:32.823Z,12.54
2019-04-14T12:59:24.420Z,12.59
2019-04-14T13:02:15.999Z,12.45
2019-04-14T13:04:48.121Z,12.71
2019-04-14T13:07:20.082Z,12.73
2019-04-14T13:09:52.109Z,12.77
2019-04-14T13:12:24.135Z,12.65
2019-04-14T13:14:56.151Z,12.61
2019-04-14T13:17:28.278Z,12.46
2019-04-14T13:20:00.363Z,12.68
2019-04-14T13:22:34.075Z,12.70
2019-04-14T13:25:06.275Z,12.68
2019-04-14T13:27:38.248Z,12.79
2019-04-14T13:30:12.137Z,12.74
2019-04-14T13:32:44.118Z,12.82
2019-04-14T13:35:18.572Z,12.76
2019-04-14T13:37:50.557Z,12.92
2019-04-14T13:40:22.613Z,12.73
2019-04-14T13:42:54.659Z,12.56
2019-04-14T13:45:26.978Z,12.48
2019-04-14T13:47:59.853Z,12.39
2019-04-14T13:50:31.886Z,12.51
2019-04-14T13:53:03.843Z,12.45
2019-04-14T13:55:35.838Z,12.48
2019-04-14T13:58:10.379Z,12.40
2019-04-14T14:00:42.394Z,12.45
2019-04-14T14:03:16.214Z,12.67
2019-04-14T14:05:48.244Z,12.54
2019-04-14T14:08:20.284Z,12.57
2019-04-14T14:10:56.380Z,12.44
2019-04-14T14:13:36.738Z,12.45
2019-04-14T14:16:24.936Z,12.44
2019-04-14T14:19:01.026Z,12.47
2019-04-14T14:21:39.906Z,12.21
2019-04-14T14:24:25.878Z,12.02
2019-04-14T14:26:58.253Z,11.98
2019-04-14T14:29:30.248Z,11.91
2019-04-14T14:32:04.330Z,11.84
2019-04-14T14:34:36.307Z,11.98
2019-04-14T14:37:08.344Z,11.88
2019-04-14T14:39:40.364Z,12.00
2019-04-14T14:42:12.398Z,11.79
2019-04-14T14:44:49.731Z,11.87
2019-04-14T14:47:27.506Z,11.90
2019-04-14T14:50:11.666Z,12.02
2019-04-14T14:52:43.714Z,12.03
2019-04-14T14:55:15.738Z,12.14
2019-04-14T14:57:47.787Z,11.86
2019-04-14T15:00:35.082Z,11.81
2019-04-14T15:03:07.217Z,11.57
2019-04-14T15:05:39.246Z,11.57
2019-04-14T15:08:11.309Z,11.39
2019-04-14T15:10:43.368Z,11.56
2019-04-14T15:13:15.393Z,11.45
2019-04-14T15:15:47.431Z,11.45
2019-04-14T15:18:19.467Z,11.41
2019-04-14T15:20:51.501Z,11.54
2019-04-14T15:23:25.275Z,11.53
2019-04-14T15:25:59.795Z,11.41
2019-04-14T15:28:31.922Z,11.51
2019-04-14T15:31:03.926Z,10.89
2019-04-14T15:33:35.984Z,10.89
2019-04-14T15:36:08.016Z,11.13
2019-04-14T15:38:41.609Z,11.13
2019-04-14T15:41:13.602Z,11.18
2019-04-14T15:43:48.149Z,11.00
2019-04-14T15:46:20.130Z,10.75
2019-04-14T15:48:52.153Z,10.75
2019-04-14T15:51:24.144Z,10.59
2019-04-14T15:53:56.114Z,10.77
2019-04-14T15:56:50.492Z,10.69
2019-04-14T15:59:51.224Z,10.71
2019-04-14T16:02:45.634Z,10.46
2019-04-14T16:05:29.052Z,10.45
2019-04-14T16:08:06.215Z,10.26
2019-04-14T16:10:46.615Z,10.36
2019-04-14T16:13:26.001Z,10.22
2019-04-14T16:16:11.230Z,10.12
2019-04-14T16:18:56.528Z,10.08
2019-04-14T16:21:28.587Z,9.98
2019-04-14T16:24:00.643Z,10.03
2019-04-14T16:26:52.253Z,10.08
2019-04-14T16:29:35.356Z,10.07
2019-04-14T16:32:45.421Z,9.92
2019-04-14T16:35:20.736Z,9.88
2019-04-14T16:37:52.733Z,9.76
2019-04-14T16:40:24.894Z,9.96
2019-04-14T16:42:56.943Z,9.89
2019-04-14T16:45:29.014Z,9.84
2019-04-14T16:48:01.059Z,9.65
2019-04-14T16:50:33.136Z,9.73
2019-04-14T16:53:15.861Z,9.34
2019-04-14T16:56:03.770Z,9.06
2019-04-14T16:58:40.888Z,9.14
2019-04-14T17:01:20.793Z,9.13
2019-04-14T17:03:52.825Z,9.02
2019-04-14T17:06:24.908Z,9.00
2019-04-14T17:08:56.906Z,8.82
2019-04-14T17:11:28.937Z,8.85
2019-04-14T17:14:07.095Z,8.83
2019-04-14T17:17:13.897Z,8.88
2019-04-14T17:20:13.514Z,8.98
2019-04-14T17:23:07.892Z,8.91
2019-04-14T17:26:14.962Z,8.75
2019-04-14T17:29:09.479Z,8.82
2019-04-14T17:32:06.583Z,8.74
2019-04-14T17:34:49.761Z,8.73
2019-04-14T17:37:40.239Z,8.55
2019-04-14T17:40:33.037Z,8.53
2019-04-14T17:43:14.368Z,8.33
2019-04-14T17:46:08.778Z,8.40
2019-04-14T17:49:06.464Z,8.59
2019-04-14T17:51:46.939Z,8.41
2019-04-14T17:54:53.880Z,8.28
2019-04-14T17:57:44.297Z,8.20
2019-04-14T18:00:20.417Z,8.18
2019-04-14T18:03:12.061Z,8.15
2019-04-14T18:05:50.572Z,8.17
2019-04-14T18:08:43.834Z,8.16
2019-04-14T18:11:41.272Z,8.05
2019-04-14T18:14:23.691Z,8.00
2019-04-14T18:17:10.044Z,8.01
2019-04-14T18:20:07.651Z,7.89
2019-04-14T18:22:39.656Z,7.90
2019-04-14T18:25:11.634Z,7.84
2019-04-14T18:28:12.304Z,7.79
2019-04-14T18:30:50.588Z,7.72
2019-04-14T18:33:38.292Z,7.60
2019-04-14T18:36:17.528Z,7.54
2019-04-14T18:39:08.010Z,7.56
2019-04-14T18:41:49.200Z,7.56
2019-04-14T18:44:30.892Z,7.50
2019-04-14T18:47:19.802Z,7.45
2019-04-14T18:50:00.391Z,7.43
2019-04-14T18:53:07.201Z,7.43
2019-04-14T18:56:10.906Z,7.34
2019-04-14T18:59:02.843Z,7.32
2019-04-14T19:01:37.854Z,7.23
2019-04-14T19:04:10.181Z,7.17
2019-04-14T19:06:42.528Z,7.22
2019-04-14T19:09:14.624Z,7.13
2019-04-14T19:12:06.217Z,7.15
2019-04-14T19:14:39.347Z,7.08
2019-04-14T19:17:35.919Z,7.06
2019-04-14T19:20:08.212Z,7.05
2019-04-14T19:22:40.343Z,6.99
2019-04-14T19:25:12.432Z,6.89
2019-04-14T19:27:47.429Z,6.82
2019-04-14T19:30:19.559Z,6.90
2019-04-14T19:32:51.556Z,6.80
2019-04-14T19:35:23.636Z,6.80
2019-04-14T19:37:55.633Z,6.76
2019-04-14T19:40:27.697Z,6.79
2019-04-14T19:42:59.813Z,6.73
2019-04-14T19:45:31.849Z,6.66
2019-04-14T19:48:03.883Z,6.63
2019-04-14T19:50:36.027Z,6.53
2019-04-14T19:53:08.048Z,6.50
2019-04-14T19:55:40.179Z,6.43
2019-04-14T19:58:12.218Z,6.32
2019-04-14T20:00:44.300Z,6.30
2019-04-14T20:03:16.344Z,6.22
2019-04-14T20:05:48.446Z,6.18
2019-04-14T20:08:20.452Z,6.19
2019-04-14T20:10:52.559Z,6.09
2019-04-14T20:13:25.878Z,6.04
2019-04-14T20:16:17.555Z,6.05
2019-04-14T20:19:24.587Z,6.02
2019-04-14T20:22:14.717Z,5.97
2019-04-14T20:25:09.358Z,5.87
2019-04-14T20:28:01.601Z,5.71
2019-04-14T20:30:38.028Z,5.71
2019-04-14T20:33:10.162Z,5.68
2019-04-14T20:35:42.144Z,5.64
2019-04-14T20:38:14.189Z,5.62
2019-04-14T20:40:46.239Z,5.58
2019-04-14T20:43:18.334Z,5.54
2019-04-14T20:45:50.308Z,5.54
2019-04-14T20:48:22.321Z,5.41
2019-04-14T20:50:54.295Z,5.39
2019-04-14T20:53:26.316Z,5.40
2019-04-14T20:55:58.297Z,5.41
2019-04-14T20:58:30.330Z,5.33
2019-04-14T21:01:04.268Z,5.29
2019-04-14T21:03:43.618Z,5.31
2019-04-14T21:06:35.219Z,5.27
2019-04-14T21:09:17.531Z,5.24
2019-04-14T21:12:07.800Z,5.23
2019-04-14T21:14:57.348Z,5.20
2019-04-14T21:17:37.376Z,5.10
2019-04-14T21:20:19.299Z,5.07
2019-04-14T21:23:09.278Z,5.06
2019-04-14T21:26:04.618Z,4.92
2019-04-14T21:28:45.877Z,4.96
2019-04-14T21:31:37.452Z,4.88
2019-04-14T21:34:28.446Z,4.80
2019-04-14T21:37:38.141Z,4.81
2019-04-14T21:40:29.774Z,4.86
2019-04-14T21:43:01.806Z,4.85
2019-04-14T21:45:33.853Z,4.80
2019-04-14T21:48:05.899Z,4.81
2019-04-14T21:50:37.910Z,4.80
2019-04-14T21:53:09.901Z,4.97
2019-04-14T21:55:41.898Z,5.03
2019-04-14T21:58:22.413Z,5.04
2019-04-14T22:01:51.435Z,5.01
2019-04-14T22:04:35.941Z,5.06
2019-04-14T22:07:26.148Z,5.02
2019-04-14T22:10:13.671Z,5.00
2019-04-14T22:12:46.517Z,4.79
2019-04-14T22:15:18.498Z,4.74
2019-04-14T22:17:50.478Z,4.71
2019-04-14T22:20:22.553Z,4.65
2019-04-14T22:22:54.519Z,4.56
2019-04-14T22:25:26.646Z,4.53
2019-04-14T22:27:58.657Z,4.51
2019-04-14T22:30:30.684Z,4.49
2019-04-14T22:33:05.693Z,4.36
2019-04-14T22:35:37.694Z,4.34
2019-04-14T22:38:09.645Z,4.24
2019-04-14T22:40:41.638Z,4.15
2019-04-14T22:43:13.773Z,4.03
2019-04-14T22:45:45.760Z,3.99
2019-04-14T22:48:20.042Z,4.00
2019-04-14T22:50:52.201Z,4.02
2019-04-14T22:53:24.109Z,4.12
2019-04-14T22:55:56.146Z,4.06
2019-04-14T22:58:28.145Z,4.04
2019-04-14T23:01:05.107Z,3.92
2019-04-14T23:04:01.723Z,3.81
2019-04-14T23:06:56.060Z,3.83
2019-04-14T23:09:33.149Z,3.79
2019-04-14T23:12:22.400Z,3.81
2019-04-14T23:15:32.518Z,3.75
2019-04-14T23:18:13.012Z,3.70
2019-04-14T23:21:10.604Z,3.68
2019-04-14T23:24:02.083Z,3.55
2019-04-14T23:26:34.064Z,3.52
2019-04-14T23:29:06.019Z,3.51
2019-04-14T23:31:37.976Z,3.58
2019-04-14T23:34:09.980Z,3.55
2019-04-14T23:36:43.170Z,3.55
2019-04-14T23:39:15.138Z,3.67
2019-04-14T23:41:49.373Z,3.77
2019-04-14T23:44:21.313Z,3.86
2019-04-14T23:46:53.294Z,3.83
2019-04-14T23:49:25.327Z,3.84
2019-04-14T23:51:57.286Z,3.86
2019-04-14T23:54:29.236Z,3.89
2019-04-14T23:57:05.866Z,3.94
2019-04-14T23:59:37.815Z,3.98
